Time;durP1;ratioP1;P1;durP2;ratioP2;P2;SDS_P1;SDS_P2;PMS_P1;PMS_P2;Temp;Humidity;BMP_temperature;BMP_pressure;BME280_temperature;BME280_humidity;BME280_pressure;Samples;Min_cycle;Max_cycle;Signal;HPM_P1;HPM_P2
2022/04/12 00:00:19;;;;;;;5.67;4.57;;;;;;;7.85;51.71;99985.06;5070066;28;20276;-60
2022/04/12 00:02:46;;;;;;;5.00;4.50;;;;;;;7.96;51.87;100009.31;5070038;28;20183;-60
2022/04/12 00:05:14;;;;;;;5.57;4.90;;;;;;;7.91;51.40;100010.81;5069994;28;20199;-60
2022/04/12 00:07:43;;;;;;;5.80;5.10;;;;;;;7.90;51.23;99998.88;5070218;28;20195;-60
2022/04/12 00:10:12;;;;;;;5.30;4.80;;;;;;;7.92;51.54;100006.56;5070137;28;20224;-60
2022/04/12 00:12:39;;;;;;;5.63;4.60;;;;;;;7.96;51.01;100009.31;5069927;28;20202;-59
2022/04/12 00:15:08;;;;;;;6.13;5.17;;;;;;;7.93;51.47;100003.22;5069722;28;20311;-60
2022/04/12 00:20:20;;;;;;;6.00;5.18;;;;;;;7.93;50.98;99993.84;5069438;28;20429;-60
2022/04/12 00:22:49;;;;;;;5.20;4.70;;;;;;;7.97;50.86;99999.94;5069857;28;20645;-60
2022/04/12 00:25:15;;;;;;;5.27;4.80;;;;;;;7.94;51.24;100005.81;5070045;28;20273;-60
2022/04/12 00:27:42;;;;;;;6.87;5.17;;;;;;;7.89;50.55;100001.34;5069718;28;20214;-60
2022/04/12 00:30:12;;;;;;;7.93;4.40;;;;;;;7.81;51.23;100001.09;5070038;28;20198;-60
2022/04/12 00:32:39;;;;;;;7.13;5.00;;;;;;;7.70;51.90;99993.03;5069891;28;20217;-61
2022/04/12 00:35:07;;;;;;;5.85;4.93;;;;;;;7.73;51.75;99994.84;5069377;28;20453;-60
2022/04/12 00:37:34;;;;;;;4.50;4.10;;;;;;;7.72;51.89;99995.66;5072344;28;20644;-60
2022/04/12 00:40:03;;;;;;;6.07;4.67;;;;;;;7.70;51.78;99990.50;5073863;28;20191;-61
2022/04/12 00:42:30;;;;;;;5.13;4.50;;;;;;;7.69;51.11;99996.41;5073738;28;20286;-60
2022/04/12 00:44:58;;;;;;;4.80;4.40;;;;;;;7.68;51.79;99991.25;5073650;28;20270;-60
2022/04/12 00:47:25;;;;;;;5.17;4.63;;;;;;;7.66;51.62;99995.44;5073881;28;20189;-60
2022/04/12 00:49:52;;;;;;;6.40;4.43;;;;;;;7.67;51.65;99997.16;5073585;28;20567;-60
2022/04/12 00:52:19;;;;;;;6.43;4.80;;;;;;;7.60;52.01;99997.78;5073486;28;20281;-60
2022/04/12 00:54:47;;;;;;;4.73;4.33;;;;;;;7.61;52.22;100002.06;5073595;28;20225;-60
2022/04/12 00:57:16;;;;;;;8.37;4.47;;;;;;;7.52;52.16;99991.53;5073366;28;20221;-60
2022/04/12 00:59:46;;;;;;;5.87;4.67;;;;;;;7.42;52.67;99997.97;5073401;28;20673;-60
2022/04/12 01:02:13;;;;;;;5.50;4.70;;;;;;;7.45;52.71;99992.09;5073698;28;20279;-60
2022/04/12 01:04:40;;;;;;;6.20;4.40;;;;;;;7.50;52.73;99998.25;5073738;28;20992;-60
2022/04/12 01:07:07;;;;;;;4.90;4.33;;;;;;;7.47;52.21;99990.50;5073481;28;20198;-61
2022/04/12 01:09:34;;;;;;;4.73;4.00;;;;;;;7.41;53.08;99985.16;5073449;28;20317;-60
2022/04/12 01:12:09;;;;;;;5.17;4.53;;;;;;;7.39;53.07;99991.91;5073353;28;20313;-61
2022/04/12 01:14:38;;;;;;;5.90;4.57;;;;;;;7.35;53.27;99985.81;5072888;28;20229;-61
2022/04/12 01:17:06;;;;;;;4.37;3.97;;;;;;;7.35;53.48;99985.81;5072904;28;20218;-60
2022/04/12 01:19:33;;;;;;;7.40;4.80;;;;;;;7.37;52.41;99985.84;5072961;28;20284;-60
2022/04/12 01:22:05;;;;;;;5.63;4.33;;;;;;;7.31;52.35;99973.69;5072857;28;20193;-60
2022/04/12 01:24:34;;;;;;;4.67;4.27;;;;;;;7.36;52.88;99984.13;5084815;28;20195;-60
2022/04/12 01:27:01;;;;;;;4.67;4.27;;;;;;;7.34;53.39;99989.16;5093124;28;20185;-61
2022/04/12 01:29:33;;;;;;;4.83;4.37;;;;;;;7.27;53.62;99987.22;5093043;28;20284;-60
2022/04/12 01:32:00;;;;;;;4.87;4.47;;;;;;;7.30;52.94;99989.00;5093067;28;20201;-60
2022/04/12 01:34:28;;;;;;;5.97;4.72;;;;;;;7.33;52.85;99990.00;5092593;28;20440;-61
2022/04/12 01:36:55;;;;;;;4.63;4.23;;;;;;;7.34;52.85;99983.16;5092924;28;20722;-60
2022/04/12 01:39:22;;;;;;;4.97;4.47;;;;;;;7.32;53.29;99980.56;5093184;28;20280;-60
2022/04/12 01:41:50;;;;;;;5.27;4.67;;;;;;;7.30;52.71;99989.88;5092947;28;20775;-60
2022/04/12 01:44:17;;;;;;;5.40;4.17;;;;;;;7.30;53.07;99989.00;5092962;28;20633;-60
2022/04/12 01:46:44;;;;;;;5.00;4.60;;;;;;;7.27;53.86;99991.44;5093020;28;20189;-60
2022/04/12 01:49:11;;;;;;;6.30;4.97;;;;;;;7.26;53.11;99994.78;5091875;28;20287;-60
2022/04/12 01:51:38;;;;;;;5.00;4.60;;;;;;;7.27;53.65;99992.31;5092859;28;20285;-60
2022/04/12 01:54:05;;;;;;;6.93;4.10;;;;;;;7.28;53.48;99999.16;5092765;28;20572;-60
2022/04/12 01:56:32;;;;;;;8.37;4.70;;;;;;;7.25;53.03;100001.59;5092637;28;20308;-60
2022/04/12 01:59:00;;;;;;;5.27;4.33;;;;;;;7.28;52.93;99995.75;5092494;28;20245;-60
2022/04/12 02:01:27;;;;;;;5.67;5.10;;;;;;;7.26;53.06;99997.34;5092354;28;20198;-60
2022/04/12 02:03:54;;;;;;;5.57;5.07;;;;;;;7.18;53.60;99988.53;5092218;28;20202;-60
2022/04/12 02:06:21;;;;;;;6.30;5.13;;;;;;;7.17;54.42;100000.44;5092355;28;20665;-60
2022/04/12 02:08:48;;;;;;;6.90;4.90;;;;;;;7.17;53.89;100002.13;5092324;28;20657;-61
2022/04/12 02:11:15;;;;;;;7.67;4.97;;;;;;;7.15;54.01;99986.72;5092426;28;20205;-60
2022/04/12 02:13:42;;;;;;;5.67;5.07;;;;;;;7.13;54.49;99996.03;5092357;28;20308;-60
2022/04/12 02:16:10;;;;;;;5.50;4.93;;;;;;;7.12;55.00;99991.72;5092377;28;20189;-60
2022/04/12 02:18:37;;;;;;;6.67;5.67;;;;;;;7.10;54.50;99985.69;5092251;28;20642;-60
2022/04/12 02:21:04;;;;;;;6.10;5.20;;;;;;;7.13;54.84;99993.47;5092406;28;20660;-60
2022/04/12 02:23:31;;;;;;;7.10;6.40;;;;;;;7.08;54.99;99992.44;5092267;28;20194;-61
2022/04/12 02:25:58;;;;;;;10.00;6.27;;;;;;;7.00;54.75;99981.06;5092311;28;20201;-60
2022/04/12 02:28:25;;;;;;;7.10;5.50;;;;;;;7.00;55.45;99986.19;5092094;28;20199;-60
2022/04/12 02:30:52;;;;;;;10.05;7.32;;;;;;;6.95;54.90;100000.47;5091726;28;20432;-60
2022/04/12 02:33:20;;;;;;;9.03;6.37;;;;;;;6.92;55.08;99997.78;5092109;28;20226;-60
2022/04/12 02:35:47;;;;;;;9.03;7.23;;;;;;;6.83;56.03;99985.53;5091681;28;20213;-61
2022/04/12 02:38:14;;;;;;;12.77;7.67;;;;;;;6.79;56.26;99985.31;5091918;28;20615;-58
2022/04/12 02:40:41;;;;;;;11.20;8.67;;;;;;;6.65;56.52;99987.34;5091894;28;20555;-58
2022/04/12 02:43:08;;;;;;;16.17;8.73;;;;;;;6.70;55.98;99995.19;5091600;28;20229;-57
2022/04/12 02:45:35;;;;;;;11.83;7.63;;;;;;;6.66;55.91;99989.09;5091828;28;20198;-58
2022/04/12 02:48:02;;;;;;;8.97;7.60;;;;;;;6.72;56.29;99998.69;5091509;28;20287;-57
2022/04/12 02:50:30;;;;;;;11.47;7.77;;;;;;;6.62;56.73;100004.25;5091716;28;20276;-57
2022/04/12 02:52:57;;;;;;;13.80;7.80;;;;;;;6.60;57.45;100003.28;5091504;28;20284;-57
2022/04/12 02:55:24;;;;;;;9.20;7.60;;;;;;;6.64;56.04;100005.16;5091333;28;20200;-57
2022/04/12 02:57:51;;;;;;;10.53;8.17;;;;;;;6.64;56.43;100000.94;5091551;28;20214;-58
2022/04/12 03:00:18;;;;;;;9.77;6.73;;;;;;;6.64;56.33;100005.16;5090706;28;20193;-57
2022/04/12 03:02:45;;;;;;;11.43;6.83;;;;;;;6.63;55.89;99999.19;5091301;28;20193;-58
2022/04/12 03:05:12;;;;;;;12.60;6.83;;;;;;;6.58;55.76;100007.47;5091504;28;20200;-57
2022/04/12 03:07:40;;;;;;;11.37;7.47;;;;;;;6.56;57.40;99999.75;5091443;28;20285;-57
2022/04/12 03:10:08;;;;;;;13.63;7.30;;;;;;;6.47;57.47;100000.25;5090337;28;20288;-57
2022/04/12 03:12:35;;;;;;;11.30;7.33;;;;;;;6.48;57.12;100001.13;5070597;28;20195;-57
2022/04/12 03:15:02;;;;;;;10.77;7.85;;;;;;;6.52;57.08;100005.53;5070432;28;20437;-57
2022/04/12 03:17:29;;;;;;;12.67;7.50;;;;;;;6.56;56.88;100009.09;5087241;28;20225;-57
2022/04/12 03:19:56;;;;;;;7.33;6.13;;;;;;;6.58;56.38;100002.38;5090941;28;20205;-57
2022/04/12 03:22:23;;;;;;;9.47;5.70;;;;;;;6.61;55.87;100010.16;5089106;28;20197;-57
2022/04/12 03:24:52;;;;;;;8.33;5.40;;;;;;;6.65;55.11;100007.75;5090145;28;20656;-57
2022/04/12 03:27:19;;;;;;;6.10;4.53;;;;;;;6.69;54.67;100001.09;5087736;28;20569;-57
2022/04/12 03:29:46;;;;;;;6.55;5.78;;;;;;;6.79;53.88;100006.63;5089608;28;20799;-57
2022/04/12 03:32:12;;;;;;;5.70;5.10;;;;;;;6.94;53.64;100001.25;5087314;28;20282;-58
2022/04/12 03:34:40;;;;;;;6.37;5.37;;;;;;;6.96;53.25;99999.63;5089074;28;20284;-58
2022/04/12 03:37:08;;;;;;;5.73;4.70;;;;;;;6.99;52.38;100005.72;5090513;28;20305;-57
2022/04/12 03:39:35;;;;;;;4.80;4.20;;;;;;;7.02;51.79;100010.09;5090471;28;20196;-57
2022/04/12 03:42:04;;;;;;;6.67;5.00;;;;;;;7.01;53.07;100008.34;5087963;28;20193;-57
2022/04/12 03:44:31;;;;;;;5.57;4.50;;;;;;;7.09;52.72;100006.94;5090058;28;20724;-57
2022/04/12 03:46:58;;;;;;;4.60;4.13;;;;;;;7.09;52.08;100012.03;5087547;28;20182;-57
2022/04/12 03:49:25;;;;;;;6.47;5.20;;;;;;;7.13;52.90;100019.03;5090268;28;20190;-57
2022/04/12 03:51:53;;;;;;;5.67;5.07;;;;;;;7.12;52.75;100013.03;5089896;28;20192;-57
2022/04/12 03:54:22;;;;;;;5.00;4.40;;;;;;;7.16;52.71;100021.72;5088654;28;20203;-61
2022/04/12 03:56:49;;;;;;;6.73;4.60;;;;;;;7.23;51.93;100021.09;5081674;28;20228;-57
2022/04/12 03:59:18;;;;;;;5.37;4.60;;;;;;;7.27;51.74;100024.66;5090618;28;20284;-58
2022/04/12 04:01:46;;;;;;;4.63;4.20;;;;;;;7.32;51.39;100026.56;5108048;28;20580;-57
2022/04/12 04:04:13;;;;;;;6.00;4.37;;;;;;;7.23;51.92;100015.13;5110924;28;20308;-57
2022/04/12 04:06:40;;;;;;;5.97;4.17;;;;;;;7.34;50.74;100022.38;5111106;28;20196;-57
2022/04/12 04:09:07;;;;;;;7.43;5.33;;;;;;;7.36;51.16;100017.34;5110819;28;20315;-57
2022/04/12 04:11:38;;;;;;;10.07;5.15;;;;;;;7.39;50.91;100027.69;5110238;28;20434;-56
2022/04/12 04:14:05;;;;;;;9.93;5.60;;;;;;;7.36;51.95;100025.84;5110416;28;20239;-57
2022/04/12 04:16:34;;;;;;;7.00;5.43;;;;;;;7.42;52.23;100020.09;5110303;28;20304;-57
2022/04/12 04:19:00;;;;;;;9.13;5.33;;;;;;;7.42;51.72;100022.66;5110466;28;20278;-57
2022/04/12 04:21:27;;;;;;;6.87;5.40;;;;;;;7.45;51.81;100026.22;5104470;28;20201;-57
2022/04/12 04:23:54;;;;;;;6.23;5.60;;;;;;;7.45;52.01;100028.75;5090204;28;20197;-57
2022/04/12 04:26:21;;;;;;;9.70;5.80;;;;;;;7.49;51.79;100033.19;5088054;28;20539;-58
2022/04/12 04:28:49;;;;;;;6.87;5.27;;;;;;;7.56;50.66;100035.16;5070275;28;20219;-57
2022/04/12 04:31:16;;;;;;;7.63;5.63;;;;;;;7.59;51.12;100034.38;5086403;28;20293;-57
2022/04/12 04:33:44;;;;;;;10.77;5.57;;;;;;;7.59;50.51;100037.81;5097535;28;20217;-58
2022/04/12 04:36:11;;;;;;;8.00;5.67;;;;;;;7.57;50.69;100036.91;5081849;28;20198;-57
2022/04/12 04:38:38;;;;;;;6.97;5.90;;;;;;;7.57;50.76;100039.47;5089706;28;20228;-57
2022/04/12 04:41:05;;;;;;;7.97;4.97;;;;;;;7.69;50.51;100033.94;5089063;28;20274;-57
2022/04/12 04:43:32;;;;;;;5.83;4.40;;;;;;;7.72;49.59;100041.69;5089486;28;20197;-57
2022/04/12 04:45:59;;;;;;;6.33;4.20;;;;;;;7.70;49.35;100044.19;5089172;28;20633;-57
2022/04/12 04:48:26;;;;;;;4.67;4.20;;;;;;;7.76;49.19;100046.09;5089303;28;20202;-57
2022/04/12 04:50:54;;;;;;;5.93;4.50;;;;;;;7.77;49.17;100034.19;5089660;28;20197;-58
2022/04/12 04:53:21;;;;;;;5.97;4.23;;;;;;;7.79;48.96;100035.09;5089855;28;20276;-58
2022/04/12 04:55:48;;;;;;;7.47;5.63;;;;;;;7.85;48.47;100038.78;5089708;28;20281;-57
2022/04/12 04:58:15;;;;;;;5.43;4.90;;;;;;;7.87;48.44;100038.81;5089466;28;20217;-57
2022/04/12 05:00:43;;;;;;;5.23;4.73;;;;;;;7.96;48.46;100050.25;5089392;28;20195;-58
2022/04/12 05:03:10;;;;;;;5.03;4.63;;;;;;;7.96;48.00;100042.56;5089709;28;20198;-58
2022/04/12 05:05:37;;;;;;;13.20;5.80;;;;;;;8.04;48.88;100042.84;5089634;28;20561;-58
2022/04/12 05:08:06;;;;;;;5.07;4.63;;;;;;;8.07;48.51;100048.94;5089601;28;20190;-58
2022/04/12 05:10:33;;;;;;;7.23;5.47;;;;;;;8.16;48.46;100049.25;5089508;28;20231;-58
2022/04/12 05:13:01;;;;;;;10.27;5.97;;;;;;;8.20;48.65;100045.09;5088826;28;20578;-59
2022/04/12 05:15:28;;;;;;;8.20;6.03;;;;;;;8.08;48.68;100025.06;5088031;28;20656;-58
2022/04/12 05:17:56;;;;;;;10.73;6.20;;;;;;;8.38;48.66;100060.28;5089405;28;20224;-58
2022/04/12 05:20:25;;;;;;;6.57;5.90;;;;;;;8.41;48.47;100052.66;5089624;28;20221;-58
2022/04/12 05:22:52;;;;;;;8.00;5.87;;;;;;;8.52;48.12;100066.69;5089228;28;20198;-58
2022/04/12 05:25:21;;;;;;;8.83;6.27;;;;;;;8.56;48.96;100061.75;5092432;28;20220;-58
2022/04/12 05:27:48;;;;;;;9.53;6.57;;;;;;;8.61;48.98;100065.31;5093224;28;20243;-58
2022/04/12 05:30:16;;;;;;;9.30;6.30;;;;;;;8.67;48.75;100065.53;5092838;28;20258;-58
2022/04/12 05:32:43;;;;;;;12.83;6.60;;;;;;;8.77;48.23;100065.00;5091792;28;20860;-58
2022/04/12 05:35:11;;;;;;;7.27;5.97;;;;;;;8.94;47.87;100062.97;5090711;28;20278;-57
2022/04/12 05:37:43;;;;;;;7.77;6.40;;;;;;;9.02;47.67;100060.66;5092515;28;20696;-57
2022/04/12 05:40:12;;;;;;;8.93;6.30;;;;;;;9.10;47.51;100066.88;5092349;28;20285;-58
2022/04/12 05:42:42;;;;;;;9.83;6.73;;;;;;;9.12;47.50;100060.13;5092535;28;20718;-57
2022/04/12 05:45:10;;;;;;;10.80;6.77;;;;;;;8.94;47.25;100028.78;5092475;28;20360;-57
2022/04/12 05:47:44;;;;;;;7.03;6.07;;;;;;;9.16;47.39;100057.69;5092716;28;20281;-57
2022/04/12 05:50:12;;;;;;;9.53;6.70;;;;;;;9.25;46.77;100045.16;5092486;28;20190;-59
2022/04/12 05:52:39;;;;;;;10.67;6.10;;;;;;;9.41;46.45;100047.34;5092321;28;20660;-60
2022/04/12 05:55:08;;;;;;;9.03;5.13;;;;;;;9.56;45.57;100052.03;5092163;28;20243;-60
2022/04/12 05:57:47;;;;;;;7.40;5.77;;;;;;;9.63;45.04;100055.66;5092062;28;20327;-59
2022/04/12 06:00:15;;;;;;;5.63;4.53;;;;;;;9.66;44.23;100056.63;5092201;28;20222;-60
2022/04/12 06:02:42;;;;;;;6.30;5.23;;;;;;;9.70;44.47;100050.75;5092006;28;20566;-60
2022/04/12 06:05:09;;;;;;;7.40;4.63;;;;;;;9.78;43.77;100051.84;5092008;28;20202;-60
2022/04/12 06:07:36;;;;;;;8.90;5.10;;;;;;;9.72;43.58;100046.56;5092032;28;20733;-60
2022/04/12 06:10:04;;;;;;;7.07;5.00;;;;;;;9.76;44.10;100057.75;5091862;28;20187;-60
2022/04/12 06:12:31;;;;;;;5.73;4.33;;;;;;;9.83;44.34;100054.56;5092209;28;20611;-60
2022/04/12 06:14:59;;;;;;;7.47;5.97;;;;;;;9.89;43.75;100053.00;5090553;28;20440;-60
2022/04/12 06:17:30;;;;;;;6.73;4.67;;;;;;;9.99;44.20;100056.72;5090529;28;20259;-61
2022/04/12 06:20:02;;;;;;;6.40;5.27;;;;;;;10.10;44.18;100057.88;5091049;28;20206;-61
2022/04/12 06:22:29;;;;;;;5.53;4.93;;;;;;;10.26;43.13;100059.19;5091860;28;20199;-61
2022/04/12 06:24:56;;;;;;;5.75;4.85;;;;;;;9.98;43.01;100017.31;5089191;28;21313;-62
2022/04/12 06:27:30;;;;;;;6.30;5.00;;;;;;;10.44;43.08;100064.78;5091505;28;20202;-61
2022/04/12 06:29:59;;;;;;;4.60;4.10;;;;;;;10.32;42.53;100046.50;5089387;28;20198;-61
2022/04/12 06:32:27;;;;;;;5.67;4.50;;;;;;;10.40;42.40;100050.13;5089519;28;20613;-60
2022/04/12 06:34:54;;;;;;;6.27;4.40;;;;;;;10.50;42.25;100064.94;5085624;28;20191;-59
2022/04/12 06:37:25;;;;;;;6.13;4.37;;;;;;;10.53;42.23;100057.31;5093882;28;20299;-60
2022/04/12 06:39:52;;;;;;;5.57;4.33;;;;;;;10.62;42.05;100060.13;5090521;28;20183;-62
2022/04/12 06:42:19;;;;;;;9.17;6.33;;;;;;;10.70;42.04;100060.31;5091256;28;20187;-62
2022/04/12 06:44:46;;;;;;;5.83;5.20;;;;;;;10.78;41.74;100059.66;5091038;28;20179;-62
2022/04/12 06:47:16;;;;;;;8.20;5.57;;;;;;;10.85;42.07;100058.13;5091015;28;20222;-62
2022/04/12 06:49:45;;;;;;;5.60;5.03;;;;;;;10.88;42.07;100053.91;5091379;28;20183;-60
2022/04/12 06:52:12;;;;;;;9.65;7.95;;;;;;;10.96;42.19;100057.53;5090600;28;20929;-60
2022/04/12 06:54:39;;;;;;;4.73;4.23;;;;;;;11.03;40.81;100055.97;5090976;28;20191;-60
2022/04/12 06:57:06;;;;;;;7.17;4.67;;;;;;;10.92;40.41;100047.13;5090979;28;20310;-61
2022/04/12 06:59:33;;;;;;;6.73;4.80;;;;;;;11.03;40.65;100066.25;5090966;28;20205;-61
2022/04/12 07:02:01;;;;;;;4.07;3.67;;;;;;;11.14;40.77;100075.09;5090891;28;20439;-60
2022/04/12 07:04:29;;;;;;;6.87;3.97;;;;;;;11.29;39.60;100075.44;5091244;28;20195;-60
2022/04/12 07:06:57;;;;;;;4.00;3.60;;;;;;;11.41;38.29;100079.97;5090838;28;20191;-60
2022/04/12 07:09:24;;;;;;;3.80;3.17;;;;;;;11.38;37.45;100075.66;5090756;28;20232;-60
2022/04/12 07:11:52;;;;;;;4.63;3.72;;;;;;;11.47;37.90;100080.13;5089656;28;20515;-60
2022/04/12 07:14:19;;;;;;;3.93;3.53;;;;;;;11.51;37.51;100087.94;5090645;28;20246;-59
2022/04/12 07:16:45;;;;;;;4.80;3.47;;;;;;;11.57;36.96;100082.94;5090773;28;20195;-59
2022/04/12 07:19:12;;;;;;;7.37;3.97;;;;;;;11.61;37.70;100079.59;5090473;28;20226;-60
2022/04/12 07:21:41;;;;;;;4.27;3.67;;;;;;;11.62;37.51;100081.31;5087378;28;20608;-60
2022/04/12 07:24:08;;;;;;;4.47;3.60;;;;;;;11.59;36.49;100088.13;5090150;28;20221;-61
2022/04/12 07:26:36;;;;;;;11.53;3.60;;;;;;;11.69;36.14;100082.34;5090051;28;20195;-61
2022/04/12 07:29:03;;;;;;;9.50;3.90;;;;;;;11.76;36.02;100085.09;5089980;28;20215;-61
2022/04/12 07:31:31;;;;;;;4.27;3.70;;;;;;;11.90;36.68;100085.38;5090244;28;20194;-62
2022/04/12 07:33:58;;;;;;;3.77;3.47;;;;;;;11.90;36.28;100089.63;5089677;28;20281;-61
2022/04/12 07:36:25;;;;;;;5.03;3.57;;;;;;;11.81;36.73;100082.63;5089897;28;20175;-61
2022/04/12 07:38:53;;;;;;;7.70;3.93;;;;;;;11.78;36.04;100085.13;5089836;28;20776;-61
2022/04/12 07:41:20;;;;;;;3.83;3.53;;;;;;;11.79;35.97;100082.56;5090200;28;20281;-61
2022/04/12 07:43:49;;;;;;;5.70;3.87;;;;;;;11.82;36.02;100079.19;5089937;28;20282;-61
2022/04/12 07:46:16;;;;;;;8.00;4.13;;;;;;;11.92;36.20;100086.25;5089593;28;20304;-61
2022/04/12 07:48:44;;;;;;;6.35;3.75;;;;;;;11.94;35.80;100083.72;5088928;28;20524;-62
2022/04/12 07:51:11;;;;;;;5.80;4.20;;;;;;;12.08;35.97;100084.88;5090095;28;20357;-61
2022/04/12 07:53:38;;;;;;;4.77;4.17;;;;;;;11.95;35.85;100059.72;5089931;28;20203;-61
2022/04/12 07:56:07;;;;;;;4.73;4.00;;;;;;;12.16;35.56;100080.75;5090178;28;20198;-61
2022/04/12 07:58:34;;;;;;;4.80;4.30;;;;;;;12.21;34.55;100084.25;5089779;28;20211;-61
2022/04/12 08:01:01;;;;;;;4.47;3.53;;;;;;;12.18;35.24;100079.94;5089560;28;20730;-61
2022/04/12 08:03:28;;;;;;;4.57;4.17;;;;;;;12.11;34.97;100048.88;5089894;28;20200;-61
2022/04/12 08:05:55;;;;;;;5.70;3.72;;;;;;;12.33;35.51;100062.16;5089490;28;20555;-61
2022/04/12 08:08:22;;;;;;;5.07;3.60;;;;;;;12.41;34.85;100063.16;5089796;28;20191;-62
2022/04/12 08:10:49;;;;;;;3.77;3.47;;;;;;;12.42;33.62;100056.31;5094979;28;20194;-60
2022/04/12 08:13:18;;;;;;;4.03;3.43;;;;;;;12.44;31.97;100070.97;5089594;28;20259;-60
2022/04/12 08:15:46;;;;;;;4.13;3.73;;;;;;;12.49;33.32;100062.44;5089690;28;20203;-60
2022/04/12 08:18:13;;;;;;;5.23;3.70;;;;;;;12.53;33.86;100061.66;5088018;28;20295;-60
2022/04/12 08:20:40;;;;;;;5.83;3.83;;;;;;;12.58;34.07;100049.72;5090410;28;20205;-61
2022/04/12 08:23:07;;;;;;;5.13;3.80;;;;;;;12.70;34.87;100042.19;5089893;28;20417;-60
2022/04/12 08:25:34;;;;;;;4.30;3.27;;;;;;;12.78;33.58;100044.03;5089327;28;20285;-60
2022/04/12 08:28:01;;;;;;;3.90;3.47;;;;;;;12.76;33.50;100040.59;5089769;28;20269;-60
2022/04/12 08:30:29;;;;;;;5.33;3.37;;;;;;;12.82;34.00;100039.81;5090025;28;20202;-61
2022/04/12 08:32:56;;;;;;;5.53;4.00;;;;;;;12.99;34.14;100043.53;5089607;28;20264;-61
2022/04/12 08:35:23;;;;;;;3.80;3.50;;;;;;;12.99;33.64;100046.09;5089567;28;20199;-61
2022/04/12 08:37:50;;;;;;;3.70;3.40;;;;;;;12.90;33.62;100041.69;5089762;28;20225;-61
2022/04/12 08:40:18;;;;;;;4.73;3.37;;;;;;;12.95;33.57;100046.88;5089519;28;20195;-61
2022/04/12 08:42:46;;;;;;;3.83;3.53;;;;;;;13.05;33.07;100043.59;5089587;28;20190;-61
2022/04/12 08:45:13;;;;;;;4.27;3.30;;;;;;;12.84;33.80;100017.50;5089531;28;20194;-61
2022/04/12 08:47:42;;;;;;;6.07;3.90;;;;;;;13.14;34.15;100045.47;5089463;28;20649;-61
2022/04/12 08:50:11;;;;;;;4.87;4.30;;;;;;;13.20;33.54;100043.00;5088462;28;20191;-61
2022/04/12 08:52:38;;;;;;;5.23;3.77;;;;;;;13.21;33.73;100014.63;5088269;28;20210;-61
2022/04/12 08:55:07;;;;;;;6.67;3.70;;;;;;;13.37;33.34;100029.50;5088252;28;20566;-61
2022/04/12 08:57:34;;;;;;;8.33;3.73;;;;;;;13.39;33.57;100019.19;5088935;28;20202;-60
2022/04/12 09:00:02;;;;;;;9.30;3.92;;;;;;;13.46;33.21;100031.31;5091985;28;21155;-60
2022/04/12 09:02:29;;;;;;;4.13;3.73;;;;;;;13.45;34.08;100006.34;5092232;28;20278;-60
2022/04/12 09:04:57;;;;;;;5.50;3.77;;;;;;;13.52;34.14;100003.00;5092644;28;20368;-60
2022/04/12 09:07:28;;;;;;;5.23;4.53;;;;;;;13.83;33.59;100012.84;5093204;28;20188;-61
2022/04/12 09:10:06;;;;;;;4.63;4.00;;;;;;;13.81;32.97;100017.16;5093328;28;20658;-60
2022/04/12 09:12:34;;;;;;;5.53;4.03;;;;;;;13.80;33.48;100017.09;5093355;28;20275;-60
2022/04/12 09:15:01;;;;;;;4.30;3.90;;;;;;;13.70;33.23;100004.94;5092225;28;20195;-61
2022/04/12 09:17:30;;;;;;;4.83;4.00;;;;;;;13.79;33.15;99999.91;5091658;28;20319;-61
2022/04/12 09:19:58;;;;;;;5.93;4.47;;;;;;;13.84;33.73;99993.94;5091670;28;20190;-60
2022/04/12 09:22:27;;;;;;;4.80;3.83;;;;;;;13.91;33.63;100000.88;5091345;28;20195;-61
2022/04/12 09:24:56;;;;;;;5.70;3.93;;;;;;;13.96;32.92;99988.00;5091032;28;20191;-61
2022/04/12 09:27:25;;;;;;;4.77;4.07;;;;;;;14.00;33.07;99998.41;5091080;28;20194;-61
2022/04/12 09:29:54;;;;;;;5.03;3.63;;;;;;;14.04;32.35;99996.69;5091832;28;20187;-60
2022/04/12 09:32:22;;;;;;;6.00;4.20;;;;;;;13.79;31.92;100003.31;5092407;28;20299;-61
2022/04/12 09:34:49;;;;;;;3.97;3.67;;;;;;;13.71;32.47;99991.16;5092357;28;20200;-61
2022/04/12 09:37:26;;;;;;;5.47;3.40;;;;;;;13.93;32.41;99986.25;5092557;28;20580;-62
2022/04/12 09:40:08;;;;;;;4.50;4.10;;;;;;;14.08;32.78;99980.41;5092367;28;20362;-61
2022/04/12 09:42:49;;;;;;;5.17;3.97;;;;;;;14.29;33.05;99980.59;5091967;28;20436;-62
2022/04/12 09:45:18;;;;;;;4.67;3.93;;;;;;;14.22;32.77;99975.34;5092334;28;20452;-61
2022/04/12 09:47:46;;;;;;;5.47;4.00;;;;;;;14.42;32.44;99979.88;5092353;28;20187;-61
2022/04/12 09:50:13;;;;;;;5.17;3.57;;;;;;;14.53;32.38;99967.91;5091920;28;20223;-62
2022/04/12 09:52:54;;;;;;;6.20;4.60;;;;;;;14.73;32.38;99966.34;5092059;28;20230;-61
2022/04/12 09:55:35;;;;;;;4.40;3.90;;;;;;;14.67;32.27;99963.69;5092028;28;20554;-61
2022/04/12 09:58:03;;;;;;;4.80;3.70;;;;;;;14.74;32.10;99960.31;5091693;28;20184;-61
2022/04/12 10:00:31;;;;;;;4.70;3.27;;;;;;;14.50;31.76;99952.34;5091667;28;20198;-61
2022/04/12 10:02:59;;;;;;;5.47;3.40;;;;;;;14.38;31.49;99947.09;5094313;28;20207;-60
2022/04/12 10:05:27;;;;;;;5.00;3.67;;;;;;;14.43;31.65;99955.75;5097107;28;20206;-60
2022/04/12 10:07:58;;;;;;;4.23;3.20;;;;;;;14.42;31.13;99945.41;5111979;28;20281;-60
2022/04/12 10:10:25;;;;;;;3.37;3.07;;;;;;;14.46;31.18;99931.66;5091241;28;20273;-61
2022/04/12 10:12:53;;;;;;;4.17;3.77;;;;;;;14.53;31.56;99930.84;5089212;28;20205;-60
2022/04/12 10:15:21;;;;;;;3.60;3.30;;;;;;;14.74;31.30;99925.81;5093237;28;20202;-61
2022/04/12 10:17:48;;;;;;;6.80;3.60;;;;;;;14.71;30.46;99931.84;5089464;28;20206;-59
2022/04/12 10:20:15;;;;;;;4.70;3.37;;;;;;;14.72;29.55;99919.78;5085908;28;20195;-59
2022/04/12 10:22:43;;;;;;;5.23;3.23;;;;;;;14.75;29.78;99906.84;5089628;28;20189;-58
2022/04/12 10:25:13;;;;;;;4.20;3.17;;;;;;;14.78;30.34;99897.38;5091451;28;20197;-59
2022/04/12 10:27:40;;;;;;;4.13;3.23;;;;;;;14.91;30.64;99900.03;5088920;28;20193;-58
2022/04/12 10:30:22;;;;;;;5.00;3.10;;;;;;;15.12;30.14;99900.13;5089873;28;20183;-58
2022/04/12 10:32:59;;;;;;;3.90;2.90;;;;;;;15.13;29.99;99884.63;5090875;28;20190;-59
2022/04/12 10:35:26;;;;;;;4.10;3.70;;;;;;;15.16;30.13;99883.78;5090724;28;20193;-59
2022/04/12 10:37:56;;;;;;;4.77;3.77;;;;;;;15.23;30.03;99878.63;5090754;28;20562;-59
2022/04/12 10:40:26;;;;;;;4.00;3.70;;;;;;;15.23;29.84;99886.38;5090125;28;20914;-59
2022/04/12 10:42:55;;;;;;;4.10;3.70;;;;;;;15.22;29.84;99876.88;5091447;28;20429;-58
2022/04/12 10:45:30;;;;;;;3.47;3.17;;;;;;;15.26;29.19;99870.88;5091000;28;20191;-59
2022/04/12 10:47:58;;;;;;;13.43;3.70;;;;;;;15.33;29.22;99859.66;5088504;28;20276;-59
2022/04/12 10:50:25;;;;;;;4.27;3.30;;;;;;;15.25;28.52;99858.78;5076355;28;20187;-58
2022/04/12 10:52:53;;;;;;;4.57;3.13;;;;;;;15.26;28.50;99857.06;5090772;28;20191;-58
2022/04/12 10:55:22;;;;;;;3.20;2.70;;;;;;;15.35;28.20;99845.00;5090904;28;20717;-60
2022/04/12 10:57:52;;;;;;;4.20;3.37;;;;;;;15.40;28.35;99851.91;5085126;28;20623;-60
2022/04/12 11:00:20;;;;;;;3.90;2.80;;;;;;;15.47;28.37;99839.00;5090803;28;20201;-61
2022/04/12 11:02:54;;;;;;;3.90;2.90;;;;;;;15.59;28.56;99840.75;5091149;28;20267;-60
2022/04/12 11:05:53;;;;;;;3.23;2.90;;;;;;;15.65;28.33;99835.59;5090912;28;20264;-61
2022/04/12 11:08:47;;;;;;;3.87;3.47;;;;;;;15.62;28.43;99831.28;5089558;28;20211;-60
2022/04/12 11:11:22;;;;;;;3.80;3.03;;;;;;;15.39;28.62;99827.75;5088583;28;20277;-61
2022/04/12 11:13:50;;;;;;;4.37;3.53;;;;;;;15.48;28.66;99820.03;5090406;28;20303;-60
2022/04/12 11:16:21;;;;;;;5.03;3.17;;;;;;;15.58;27.76;99826.06;5090303;28;20642;-60
2022/04/12 11:18:50;;;;;;;3.40;3.10;;;;;;;15.63;27.42;99814.84;5087487;28;20200;-61
2022/04/12 11:21:18;;;;;;;3.10;2.80;;;;;;;15.83;27.60;99807.09;5087526;28;20192;-61
2022/04/12 11:23:47;;;;;;;2.73;2.53;;;;;;;15.91;27.47;99810.56;5090020;28;20370;-60
2022/04/12 11:26:38;;;;;;;4.20;2.80;;;;;;;15.93;27.72;99806.25;5090490;28;20230;-60
2022/04/12 11:29:11;;;;;;;4.37;3.03;;;;;;;16.01;27.30;99806.25;5090672;28;20240;-60
2022/04/12 11:31:43;;;;;;;3.37;3.07;;;;;;;16.01;27.63;99795.88;5089334;28;20199;-60
2022/04/12 11:34:10;;;;;;;3.87;3.30;;;;;;;16.20;27.30;99798.44;5089329;28;20184;-60
2022/04/12 11:36:40;;;;;;;5.27;2.90;;;;;;;16.20;27.25;99795.84;5089975;28;20205;-58
2022/04/12 11:39:07;;;;;;;3.80;3.03;;;;;;;16.20;27.23;99784.63;5090165;28;20237;-59